Terminal Aerodrome Forecast
Issued by NWS

Home | Current Version | Previous Version | Text Only | Print | Product List | Glossary On
Versions: 1 2 3 4 5 6 7 8 9 10 11 12
832
FTUS44 KSJT 141131
TAFBBD
TAF
KBBD 141131Z 1412/1512 18014KT P6SM BKN012 WS020/19045KT
      TEMPO 1414/1416 SCT018
     FM141600 20013KT P6SM BKN250
     FM142100 24010KT P6SM SCT040 BKN250
     FM150000 34009KT P6SM SCT250
     FM150400 34005KT P6SM SCT250
      AMD NOT SKED=

USA.gov is the U.S. government's official web portal to all federal, state and local government web resources and services.